Time;durP1;ratioP1;P1;durP2;ratioP2;P2;SDS_P1;SDS_P2;PMS_P1;PMS_P2;Temp;Humidity;BMP_temperature;BMP_pressure;BME280_temperature;BME280_humidity;BME280_pressure;Samples;Min_cycle;Max_cycle;Signal;HPM_P1;HPM_P2
2021/12/28 00:00:56;;;;;;;11.07;3.83;;;11.90;85.30;;;;;;5049420;28;20087;-73
2021/12/28 00:03:22;;;;;;;8.25;3.08;;;11.90;85.30;;;;;;5048934;28;20089;-73
2021/12/28 00:05:48;;;;;;;11.32;3.00;;;11.90;85.20;;;;;;5049003;28;20692;-72
2021/12/28 00:08:15;;;;;;;7.63;3.00;;;12.00;85.40;;;;;;5049337;28;20029;-72
2021/12/28 00:10:41;;;;;;;12.13;3.40;;;11.90;85.20;;;;;;5048744;28;20148;-73
2021/12/28 00:13:07;;;;;;;11.98;2.83;;;12.00;85.40;;;;;;5053293;28;20070;-73
2021/12/28 00:15:47;;;;;;;9.27;3.15;;;12.00;85.40;;;;;;5050478;28;20060;-72
2021/12/28 00:18:13;;;;;;;8.30;3.20;;;12.00;85.40;;;;;;5066430;28;20364;-72
2021/12/28 00:20:42;;;;;;;7.78;2.45;;;12.00;85.30;;;;;;5048259;28;20033;-72
2021/12/28 00:23:22;;;;;;;11.55;3.35;;;12.00;85.30;;;;;;5031693;28;20428;-72
2021/12/28 00:25:51;;;;;;;8.75;2.80;;;12.00;85.30;;;;;;5047716;28;20025;-72
2021/12/28 00:28:17;;;;;;;7.38;2.92;;;12.00;85.30;;;;;;5047774;28;20036;-74
2021/12/28 00:30:43;;;;;;;7.70;3.60;;;12.00;85.30;;;;;;5046374;28;20192;-72
2021/12/28 00:33:10;;;;;;;10.43;2.80;;;12.00;85.30;;;;;;5047602;28;20040;-73
2021/12/28 00:35:39;;;;;;;13.65;3.03;;;12.00;85.30;;;;;;5047998;28;20086;-72
2021/12/28 00:38:07;;;;;;;6.63;2.35;;;12.00;85.30;;;;;;5047027;28;20029;-72
2021/12/28 00:40:35;;;;;;;12.35;3.08;;;11.90;85.10;;;;;;5046880;28;20047;-72
2021/12/28 00:43:01;;;;;;;10.15;4.45;;;11.90;85.10;;;;;;5047455;28;20017;-73
2021/12/28 00:45:28;;;;;;;4.63;2.20;;;11.90;85.10;;;;;;5047746;28;20035;-72
2021/12/28 00:47:54;;;;;;;8.70;2.28;;;11.90;85.20;;;;;;5003993;28;1289650;-73
2021/12/28 00:50:22;;;;;;;6.53;2.33;;;11.90;85.20;;;;;;5048133;28;20037;-72
2021/12/28 00:52:48;;;;;;;5.72;2.10;;;11.90;85.20;;;;;;5030740;28;20029;-72
2021/12/28 00:55:17;;;;;;;7.22;2.60;;;11.90;85.20;;;;;;5048461;28;20025;-71
2021/12/28 00:57:43;;;;;;;6.18;2.78;;;11.90;85.20;;;;;;5047752;28;20480;-73
2021/12/28 01:00:13;;;;;;;8.02;2.40;;;11.90;85.20;;;;;;5048292;28;20037;-72
2021/12/28 01:02:39;;;;;;;7.22;3.70;;;11.90;85.20;;;;;;5030562;28;20160;-72
2021/12/28 01:05:07;;;;;;;9.32;2.17;;;11.90;85.20;;;;;;5050912;28;20066;-73
2021/12/28 01:07:34;;;;;;;7.47;2.20;;;11.90;85.20;;;;;;5050565;28;20380;-73
2021/12/28 01:10:00;;;;;;;9.80;3.00;;;11.90;85.20;;;;;;5068114;28;20033;-71
2021/12/28 01:12:26;;;;;;;8.10;2.55;;;11.90;85.10;;;;;;5067461;28;20028;-73
2021/12/28 01:14:52;;;;;;;9.18;2.38;;;11.90;85.20;;;;;;5068219;28;20032;-72
2021/12/28 01:17:18;;;;;;;10.88;3.15;;;12.00;85.30;;;;;;5068533;28;20116;-73
2021/12/28 01:19:44;;;;;;;6.70;2.65;;;11.90;85.10;;;;;;5066942;28;20546;-73
2021/12/28 01:22:10;;;;;;;13.23;2.50;;;12.00;85.20;;;;;;5069378;28;20032;-72
2021/12/28 01:24:36;;;;;;;9.57;3.33;;;11.90;85.10;;;;;;5067797;28;20075;-72
2021/12/28 01:27:02;;;;;;;9.60;3.35;;;11.90;85.10;;;;;;5068177;28;20031;-72
2021/12/28 01:29:28;;;;;;;5.43;2.30;;;11.90;85.00;;;;;;5067170;28;20115;-72
2021/12/28 01:31:54;;;;;;;4.43;2.00;;;11.90;85.00;;;;;;5067939;28;20130;-73
2021/12/28 01:34:20;;;;;;;10.48;2.20;;;11.90;85.10;;;;;;5067725;28;20037;-72
2021/12/28 01:36:47;;;;;;;6.90;2.30;;;11.90;85.00;;;;;;5067536;28;20085;-73
2021/12/28 01:39:13;;;;;;;8.93;3.13;;;11.90;85.10;;;;;;5068439;28;20068;-73
2021/12/28 01:41:39;;;;;;;8.38;3.03;;;11.80;84.90;;;;;;5067768;28;20111;-72
2021/12/28 01:44:08;;;;;;;8.70;3.10;;;11.90;85.10;;;;;;5067981;28;20060;-72
2021/12/28 01:46:36;;;;;;;5.90;2.45;;;11.80;85.00;;;;;;5067609;28;20048;-73
2021/12/28 01:49:03;;;;;;;7.70;2.33;;;11.80;84.90;;;;;;5067768;28;20429;-73
2021/12/28 01:51:29;;;;;;;5.90;2.25;;;11.80;85.50;;;;;;5068053;28;20029;-72
2021/12/28 01:53:57;;;;;;;7.85;2.50;;;11.80;85.00;;;;;;5049377;28;20036;-73
2021/12/28 01:56:51;;;;;;;7.03;2.47;;;11.80;85.00;;;;;;5049400;28;20047;-72
2021/12/28 01:59:20;;;;;;;7.32;2.40;;;11.80;85.00;;;;;;5064110;28;20040;-72
2021/12/28 02:01:47;;;;;;;5.55;2.35;;;11.80;85.00;;;;;;5067485;28;20124;-72
2021/12/28 02:04:16;;;;;;;5.07;2.13;;;11.80;85.00;;;;;;5033972;28;20103;-73
2021/12/28 02:06:42;;;;;;;7.35;1.95;;;11.80;85.50;;;;;;5067253;28;20024;-73
2021/12/28 02:09:09;;;;;;;6.10;2.50;;;11.80;84.90;;;;;;5068010;28;20056;-75
2021/12/28 02:11:36;;;;;;;7.70;2.22;;;11.80;84.90;;;;;;5049409;28;20048;-74
2021/12/28 02:14:05;;;;;;;4.75;1.85;;;11.80;84.90;;;;;;5067023;28;20450;-72
2021/12/28 02:16:31;;;;;;;6.20;2.22;;;11.80;85.00;;;;;;5067344;28;20025;-74
2021/12/28 02:18:57;;;;;;;6.40;1.85;;;11.80;84.90;;;;;;5066489;28;20048;-73
2021/12/28 02:21:23;;;;;;;7.47;1.85;;;11.80;84.90;;;;;;5067034;28;20024;-73
2021/12/28 02:23:49;;;;;;;3.92;1.83;;;11.80;84.90;;;;;;5066796;28;20078;-74
2021/12/28 02:26:15;;;;;;;5.32;2.28;;;11.80;84.90;;;;;;5067240;28;20123;-72
2021/12/28 02:28:41;;;;;;;4.90;1.60;;;11.80;84.90;;;;;;5067064;28;20116;-72
2021/12/28 02:31:07;;;;;;;5.40;2.10;;;11.80;84.90;;;;;;5059581;28;20036;-73
2021/12/28 02:33:35;;;;;;;3.28;1.27;;;11.80;84.90;;;;;;5048767;28;20537;-73
2021/12/28 02:36:04;;;;;;;4.47;2.08;;;11.80;84.90;;;;;;5048346;28;20136;-72
2021/12/28 02:38:32;;;;;;;3.42;1.70;;;11.80;85.00;;;;;;5048368;28;20047;-73
2021/12/28 02:40:58;;;;;;;3.38;1.65;;;11.80;84.90;;;;;;5047333;28;20025;-73
2021/12/28 02:43:25;;;;;;;6.35;2.00;;;11.80;84.90;;;;;;5029997;28;20033;-74
2021/12/28 02:46:02;;;;;;;3.45;1.50;;;11.80;85.00;;;;;;5054758;28;20020;-72
2021/12/28 02:48:29;;;;;;;3.13;1.63;;;11.80;85.00;;;;;;5071005;28;20049;-73
2021/12/28 02:51:04;;;;;;;5.03;1.70;;;11.80;84.90;;;;;;5071576;28;20371;-72
2021/12/28 02:53:31;;;;;;;6.57;1.42;;;11.80;85.50;;;;;;5071541;28;20024;-73
2021/12/28 02:55:58;;;;;;;3.08;1.23;;;11.80;85.00;;;;;;5071237;28;20028;-74
2021/12/28 02:58:26;;;;;;;4.60;1.42;;;11.80;85.00;;;;;;5071602;28;20056;-73
2021/12/28 03:01:06;;;;;;;3.80;1.13;;;11.80;85.00;;;;;;5070448;28;20128;-72
2021/12/28 03:03:33;;;;;;;3.80;1.40;;;11.80;85.00;;;;;;5070864;28;20483;-74
2021/12/28 03:06:02;;;;;;;7.25;1.65;;;11.80;84.90;;;;;;5069288;28;20040;-73
2021/12/28 03:08:30;;;;;;;4.53;1.70;;;11.70;84.80;;;;;;5071231;28;20028;-72
2021/12/28 03:10:57;;;;;;;3.65;1.52;;;11.80;85.00;;;;;;5070755;28;20492;-74
2021/12/28 03:13:27;;;;;;;2.72;1.40;;;11.80;84.90;;;;;;5071415;28;20032;-75
2021/12/28 03:15:54;;;;;;;5.70;1.80;;;11.80;84.90;;;;;;5070873;28;20132;-74
2021/12/28 03:18:20;;;;;;;3.03;2.25;;;11.80;85.00;;;;;;5070652;28;20604;-74
2021/12/28 03:20:47;;;;;;;3.25;1.48;;;11.80;84.90;;;;;;5070777;28;20518;-73
2021/12/28 03:23:15;;;;;;;2.67;1.55;;;11.70;84.80;;;;;;5071213;28;20113;-73
2021/12/28 03:25:41;;;;;;;4.18;1.30;;;11.80;84.90;;;;;;5052048;28;20028;-72
2021/12/28 03:28:08;;;;;;;6.32;1.65;;;11.70;84.70;;;;;;5070451;28;20024;-74
2021/12/28 03:30:34;;;;;;;4.75;1.52;;;11.70;84.70;;;;;;5070221;28;20117;-73
2021/12/28 03:33:00;;;;;;;3.50;1.75;;;11.70;84.80;;;;;;5070146;28;20064;-73
2021/12/28 03:35:26;;;;;;;5.00;1.80;;;11.80;84.90;;;;;;5071937;28;20318;-73
2021/12/28 03:37:52;;;;;;;5.18;1.38;;;11.70;84.80;;;;;;5054193;28;20028;-73
2021/12/28 03:40:18;;;;;;;5.15;1.40;;;11.70;84.70;;;;;;5071222;28;20032;-73
2021/12/28 03:42:45;;;;;;;5.22;1.50;;;11.70;84.80;;;;;;5053544;28;20090;-74
2021/12/28 03:45:12;;;;;;;4.38;1.42;;;11.70;84.80;;;;;;5071351;28;20036;-74
2021/12/28 03:47:38;;;;;;;4.20;1.45;;;11.70;84.80;;;;;;5071290;28;20088;-72
2021/12/28 03:50:06;;;;;;;6.57;2.25;;;11.70;84.80;;;;;;5069433;28;20067;-73
2021/12/28 03:52:32;;;;;;;5.25;1.48;;;11.60;84.60;;;;;;5071391;28;20530;-73
2021/12/28 03:54:59;;;;;;;4.03;1.55;;;11.70;84.80;;;;;;5070939;28;20028;-72
2021/12/28 03:57:25;;;;;;;2.85;1.30;;;11.70;84.80;;;;;;5070448;28;20054;-72
2021/12/28 03:59:51;;;;;;;2.95;1.65;;;11.60;84.60;;;;;;5070566;28;20414;-74
2021/12/28 04:02:17;;;;;;;4.00;1.33;;;11.60;84.60;;;;;;5052243;28;20452;-74
2021/12/28 04:04:43;;;;;;;2.55;1.50;;;11.70;84.80;;;;;;5070417;28;20096;-74
2021/12/28 04:07:12;;;;;;;3.83;1.83;;;11.60;84.60;;;;;;5070978;28;20517;-73
2021/12/28 04:12:22;;;;;;;4.85;2.20;;;11.60;84.60;;;;;;5069743;28;20029;-73
2021/12/28 04:14:49;;;;;;;6.53;1.80;;;11.70;84.70;;;;;;5070315;28;20107;-74
2021/12/28 04:17:15;;;;;;;4.20;1.92;;;11.70;84.70;;;;;;5070268;28;20471;-72
2021/12/28 04:19:41;;;;;;;5.13;1.98;;;11.70;84.70;;;;;;5070441;28;20041;-74
2021/12/28 04:22:07;;;;;;;3.72;1.30;;;11.70;84.70;;;;;;5070093;28;20044;-74
2021/12/28 04:24:34;;;;;;;3.08;1.10;;;11.70;84.70;;;;;;5069735;28;20039;-73
2021/12/28 04:27:00;;;;;;;1.88;1.33;;;11.70;84.70;;;;;;5069896;28;20056;-73
2021/12/28 04:29:26;;;;;;;4.50;1.05;;;11.70;84.70;;;;;;5069773;28;20139;-75
2021/12/28 04:31:52;;;;;;;2.40;1.35;;;11.70;84.70;;;;;;5070087;28;20559;-74
2021/12/28 04:34:19;;;;;;;4.72;2.50;;;11.70;84.70;;;;;;5069713;28;20550;-74
2021/12/28 04:36:47;;;;;;;4.03;1.35;;;11.70;84.70;;;;;;5052219;28;20044;-73
2021/12/28 04:39:13;;;;;;;4.32;1.30;;;11.60;84.50;;;;;;5051601;28;20047;-73
2021/12/28 04:41:40;;;;;;;3.88;1.20;;;11.70;84.70;;;;;;5069638;28;20028;-73
2021/12/28 04:44:07;;;;;;;3.47;1.20;;;11.70;84.70;;;;;;5073572;28;20107;-74
2021/12/28 04:46:33;;;;;;;4.10;1.10;;;11.70;84.70;;;;;;5073656;28;20037;-74
2021/12/28 04:48:59;;;;;;;4.07;1.38;;;11.60;84.50;;;;;;5073580;28;20256;-73
2021/12/28 04:51:25;;;;;;;4.07;1.52;;;11.70;84.70;;;;;;5073352;28;20028;-74
2021/12/28 04:53:54;;;;;;;6.65;1.50;;;11.60;84.50;;;;;;5073637;28;20102;-73
2021/12/28 04:56:20;;;;;;;5.90;1.60;;;11.60;84.50;;;;;;5071967;28;20070;-72
2021/12/28 04:58:46;;;;;;;2.85;1.05;;;11.70;84.70;;;;;;5073502;28;20041;-74
2021/12/28 05:01:12;;;;;;;6.45;2.13;;;11.60;84.50;;;;;;5073201;28;20177;-72
2021/12/28 05:03:38;;;;;;;5.88;1.67;;;11.60;84.50;;;;;;5072758;28;20036;-73
2021/12/28 05:06:04;;;;;;;5.03;1.55;;;11.60;84.50;;;;;;5072896;28;20033;-73
2021/12/28 05:08:30;;;;;;;5.72;1.98;;;11.60;85.00;;;;;;5072470;28;20021;-73
2021/12/28 05:10:57;;;;;;;5.75;1.30;;;11.60;84.50;;;;;;5072584;28;20437;-72
2021/12/28 05:13:23;;;;;;;8.07;2.00;;;11.60;84.50;;;;;;5072560;28;20025;-74
2021/12/28 05:15:50;;;;;;;6.07;1.77;;;11.70;84.60;;;;;;5073675;28;20154;-73
2021/12/28 05:18:17;;;;;;;4.20;1.50;;;11.70;84.60;;;;;;5071409;28;20032;-73
2021/12/28 05:20:44;;;;;;;6.80;1.58;;;11.70;84.60;;;;;;5072610;28;20039;-74
2021/12/28 05:23:10;;;;;;;6.80;1.73;;;11.70;84.60;;;;;;5073027;28;20491;-73
2021/12/28 05:25:36;;;;;;;7.63;1.83;;;11.70;84.60;;;;;;5072439;28;20032;-73
2021/12/28 05:28:04;;;;;;;7.88;2.08;;;11.70;84.60;;;;;;5072452;28;20021;-72
2021/12/28 05:30:30;;;;;;;6.13;2.15;;;11.60;84.40;;;;;;5072680;28;20071;-73
2021/12/28 05:32:56;;;;;;;8.77;1.33;;;11.60;84.40;;;;;;5071757;28;20032;-73
2021/12/28 05:35:23;;;;;;;8.27;1.48;;;11.60;84.40;;;;;;5072152;28;20483;-73
2021/12/28 05:37:49;;;;;;;5.28;1.88;;;11.60;84.40;;;;;;5072499;28;20032;-72
2021/12/28 05:40:16;;;;;;;6.10;1.40;;;11.60;84.50;;;;;;5072288;28;20037;-73
2021/12/28 05:42:42;;;;;;;6.75;1.33;;;11.60;84.50;;;;;;5073057;28;20024;-73
2021/12/28 05:45:09;;;;;;;2.95;1.10;;;11.60;84.50;;;;;;5072783;28;20036;-74
2021/12/28 05:47:35;;;;;;;10.02;2.92;;;11.60;84.50;;;;;;5070926;28;20044;-74
2021/12/28 05:50:05;;;;;;;5.13;1.80;;;11.60;84.50;;;;;;5068662;28;20491;-75
2021/12/28 05:52:31;;;;;;;6.43;1.67;;;11.60;84.50;;;;;;5068023;28;20397;-74
2021/12/28 05:54:57;;;;;;;8.65;2.42;;;11.60;84.50;;;;;;5068728;28;20438;-74
2021/12/28 05:57:24;;;;;;;9.60;2.85;;;11.60;84.50;;;;;;5068982;28;20119;-75
2021/12/28 05:59:51;;;;;;;5.07;2.20;;;11.60;84.50;;;;;;5048994;28;20519;-74
2021/12/28 06:02:17;;;;;;;10.30;2.25;;;11.60;84.50;;;;;;5032245;28;20029;-75
2021/12/28 06:04:43;;;;;;;11.07;2.55;;;11.60;84.50;;;;;;5049808;28;20075;-72
2021/12/28 06:07:09;;;;;;;9.40;2.53;;;11.60;84.40;;;;;;5049564;28;20502;-74
2021/12/28 06:09:35;;;;;;;14.48;2.90;;;11.50;84.20;;;;;;5067175;28;20121;-75
2021/12/28 06:12:01;;;;;;;11.02;2.55;;;11.60;84.40;;;;;;5067802;28;20025;-75
2021/12/28 06:14:27;;;;;;;13.07;2.30;;;11.50;84.10;;;;;;5067234;28;20107;-76
2021/12/28 06:16:54;;;;;;;15.38;3.03;;;11.50;84.10;;;;;;5067614;28;20481;-73
2021/12/28 06:19:20;;;;;;;15.07;3.53;;;11.50;84.10;;;;;;5067481;28;20339;-75
2021/12/28 06:21:46;;;;;;;16.55;3.08;;;11.40;84.00;;;;;;5066914;28;20033;-73
2021/12/28 06:24:12;;;;;;;16.05;3.35;;;11.50;84.10;;;;;;5066749;28;20043;-75
2021/12/28 06:26:38;;;;;;;18.52;3.08;;;11.40;84.00;;;;;;5048511;28;20025;-74
2021/12/28 06:29:06;;;;;;;20.38;3.13;;;11.40;84.00;;;;;;5066132;28;20039;-74
2021/12/28 06:31:32;;;;;;;20.60;3.75;;;11.40;84.00;;;;;;5066569;28;20221;-74
2021/12/28 06:34:00;;;;;;;21.38;5.55;;;11.40;84.00;;;;;;5066294;28;20367;-73
2021/12/28 06:36:27;;;;;;;19.40;4.65;;;11.40;84.00;;;;;;5048773;28;20039;-73
2021/12/28 06:38:53;;;;;;;21.50;4.18;;;11.30;83.80;;;;;;5066212;28;20488;-72
2021/12/28 06:41:19;;;;;;;26.40;5.22;;;11.30;83.80;;;;;;5047984;28;20043;-74
2021/12/28 06:43:47;;;;;;;24.73;6.30;;;11.30;83.80;;;;;;5055283;28;20115;-75
2021/12/28 06:46:13;;;;;;;26.42;5.57;;;11.30;83.80;;;;;;5067371;28;20032;-72
2021/12/28 06:48:39;;;;;;;14.95;3.47;;;11.30;83.70;;;;;;5056125;28;20065;-74
2021/12/28 06:51:06;;;;;;;22.27;4.95;;;11.30;83.70;;;;;;5046400;28;20075;-73
2021/12/28 06:53:33;;;;;;;22.80;4.05;;;11.30;83.70;;;;;;5033116;28;20230;-74
2021/12/28 06:55:59;;;;;;;22.40;5.18;;;11.30;83.70;;;;;;5066417;28;20028;-74
2021/12/28 06:58:25;;;;;;;23.38;4.40;;;11.20;83.50;;;;;;5066729;28;20033;-75
2021/12/28 07:00:51;;;;;;;23.17;5.32;;;11.20;83.40;;;;;;5066470;28;20094;-73
2021/12/28 07:03:17;;;;;;;28.80;6.13;;;11.20;83.40;;;;;;5066032;28;20025;-74
2021/12/28 07:05:43;;;;;;;24.98;5.22;;;11.20;83.40;;;;;;5066236;28;20032;-74
2021/12/28 07:08:09;;;;;;;20.65;5.00;;;11.20;83.40;;;;;;5067025;28;20025;-74
2021/12/28 07:10:35;;;;;;;25.45;4.82;;;11.20;83.40;;;;;;5067231;28;20028;-72
2021/12/28 07:13:01;;;;;;;21.58;4.72;;;11.10;83.20;;;;;;5066676;28;20074;-76
2021/12/28 07:15:27;;;;;;;25.73;5.32;;;11.10;83.20;;;;;;5067087;28;20047;-72
2021/12/28 07:17:53;;;;;;;18.50;3.15;;;11.10;83.20;;;;;;5051376;28;20024;-73
2021/12/28 07:20:19;;;;;;;21.48;3.15;;;11.10;83.30;;;;;;5067485;28;20052;-72
2021/12/28 07:22:45;;;;;;;24.08;4.07;;;11.20;83.90;;;;;;5066542;28;20099;-74
2021/12/28 07:25:11;;;;;;;16.33;3.50;;;11.30;84.10;;;;;;5066304;28;20033;-73
2021/12/28 07:27:38;;;;;;;20.67;5.07;;;11.30;83.90;;;;;;5048352;28;20056;-73
2021/12/28 07:30:07;;;;;;;21.58;4.60;;;11.40;84.00;;;;;;5049793;28;20400;-73
2021/12/28 07:32:34;;;;;;;16.23;3.65;;;11.40;83.90;;;;;;5049978;28;20036;-75
2021/12/28 07:35:01;;;;;;;16.77;4.28;;;11.40;83.80;;;;;;5066350;28;20036;-74
2021/12/28 07:37:27;;;;;;;19.13;4.47;;;11.40;83.70;;;;;;5067036;28;20219;-75
2021/12/28 07:39:53;;;;;;;29.60;4.32;;;11.30;83.50;;;;;;5048373;28;20395;-75
2021/12/28 07:42:20;;;;;;;20.05;3.35;;;11.30;83.50;;;;;;5066332;28;20087;-75
2021/12/28 07:44:47;;;;;;;19.00;4.05;;;11.30;83.50;;;;;;5067980;28;20404;-73
2021/12/28 07:47:13;;;;;;;22.55;4.90;;;11.30;83.50;;;;;;5070104;28;20698;-74
2021/12/28 07:49:39;;;;;;;16.00;4.18;;;11.20;83.30;;;;;;5067981;28;20036;-73
2021/12/28 07:52:05;;;;;;;17.48;4.35;;;11.20;83.30;;;;;;5067481;28;20079;-73
2021/12/28 07:54:31;;;;;;;15.32;3.15;;;11.20;83.30;;;;;;5063991;28;20139;-74
2021/12/28 07:56:57;;;;;;;21.60;5.25;;;11.20;83.30;;;;;;5066892;28;20025;-72
2021/12/28 07:59:23;;;;;;;22.17;4.93;;;11.20;83.30;;;;;;5052767;28;20047;-75
2021/12/28 08:01:49;;;;;;;26.33;4.88;;;11.20;83.30;;;;;;5064039;28;20025;-75
2021/12/28 08:04:15;;;;;;;19.55;4.82;;;11.10;83.10;;;;;;5058717;28;20500;-74
2021/12/28 08:06:41;;;;;;;19.48;4.38;;;11.20;83.30;;;;;;5066428;28;20035;-76
2021/12/28 08:09:07;;;;;;;19.50;3.97;;;11.10;83.00;;;;;;5048132;28;20024;-74
2021/12/28 08:11:34;;;;;;;18.73;3.88;;;11.10;83.00;;;;;;5046637;28;20111;-75
2021/12/28 08:14:01;;;;;;;11.23;2.90;;;11.10;82.90;;;;;;5065311;28;20025;-74
2021/12/28 08:16:27;;;;;;;20.25;4.38;;;11.10;82.90;;;;;;5064971;28;20592;-73
2021/12/28 08:18:53;;;;;;;18.90;3.15;;;11.10;82.80;;;;;;5069549;28;20041;-74
2021/12/28 08:21:20;;;;;;;14.63;2.40;;;11.10;82.80;;;;;;5069747;28;20056;-74
2021/12/28 08:23:46;;;;;;;14.25;2.85;;;11.00;82.60;;;;;;5069125;28;20040;-75
2021/12/28 08:26:13;;;;;;;14.43;4.07;;;11.10;82.70;;;;;;5072493;28;20441;-73
2021/12/28 08:28:39;;;;;;;11.60;2.92;;;11.00;82.50;;;;;;5071049;28;20082;-72
2021/12/28 08:31:05;;;;;;;12.30;2.97;;;11.00;82.50;;;;;;5056072;28;20040;-72
2021/12/28 08:33:31;;;;;;;23.70;2.67;;;11.00;82.80;;;;;;5072805;28;20060;-75
2021/12/28 08:35:57;;;;;;;15.00;4.57;;;11.20;83.80;;;;;;5071074;28;20052;-75
2021/12/28 08:38:23;;;;;;;14.65;2.67;;;11.50;84.40;;;;;;5070011;28;20391;-79
2021/12/28 08:40:49;;;;;;;19.38;4.15;;;11.70;84.60;;;;;;5070319;28;20044;-76
2021/12/28 08:43:15;;;;;;;19.65;3.42;;;12.00;84.80;;;;;;5054572;28;20025;-75
2021/12/28 08:45:41;;;;;;;30.45;5.68;;;12.30;84.80;;;;;;5072146;28;20033;-74
2021/12/28 08:48:10;;;;;;;16.77;3.47;;;12.50;84.50;;;;;;5073571;28;20098;-74
2021/12/28 08:50:38;;;;;;;17.67;4.10;;;12.60;84.20;;;;;;5072949;28;20040;-75
2021/12/28 08:53:04;;;;;;;22.00;5.90;;;12.70;84.10;;;;;;5075454;28;20016;-73
2021/12/28 08:55:31;;;;;;;25.00;4.05;;;12.70;83.90;;;;;;5074728;28;20039;-72
2021/12/28 08:57:58;;;;;;;19.05;3.88;;;12.60;83.60;;;;;;5073175;28;20120;-73
2021/12/28 09:00:28;;;;;;;19.25;3.90;;;12.60;83.60;;;;;;5055408;28;20048;-72
2021/12/28 09:02:55;;;;;;;27.40;5.30;;;12.60;83.60;;;;;;5057501;28;20060;-72
2021/12/28 09:05:22;;;;;;;20.40;4.45;;;12.60;83.60;;;;;;5071443;28;20028;-73
2021/12/28 09:07:48;;;;;;;18.40;4.63;;;12.60;83.60;;;;;;5069708;28;20037;-74
2021/12/28 09:10:14;;;;;;;17.48;3.75;;;12.50;83.50;;;;;;5068200;28;20068;-72
2021/12/28 09:12:41;;;;;;;19.85;4.30;;;12.50;83.60;;;;;;5067567;28;20024;-74
2021/12/28 09:15:09;;;;;;;17.48;4.97;;;12.50;83.70;;;;;;5068242;28;20050;-73
2021/12/28 09:17:37;;;;;;;25.30;4.80;;;12.50;83.70;;;;;;5033405;28;20039;-71
2021/12/28 09:20:08;;;;;;;19.67;3.75;;;12.50;83.70;;;;;;5067899;28;20094;-72
2021/12/28 09:22:35;;;;;;;17.45;4.82;;;12.50;83.70;;;;;;5068228;28;20422;-72
2021/12/28 09:25:01;;;;;;;25.23;6.85;;;12.50;83.70;;;;;;5068429;28;20120;-73
2021/12/28 09:27:27;;;;;;;27.33;5.88;;;12.50;83.70;;;;;;5068326;28;20035;-72
2021/12/28 09:29:53;;;;;;;19.63;5.07;;;12.60;83.90;;;;;;5068575;28;20032;-72
2021/12/28 09:32:20;;;;;;;22.90;6.57;;;12.60;83.80;;;;;;5050006;28;20411;-72
2021/12/28 09:34:50;;;;;;;25.20;5.82;;;12.60;83.60;;;;;;5066440;28;20472;-73
2021/12/28 09:37:17;;;;;;;30.38;6.03;;;12.60;83.60;;;;;;5067789;28;20024;-72
2021/12/28 09:39:43;;;;;;;35.58;9.65;;;12.60;83.50;;;;;;5066279;28;20067;-72
2021/12/28 09:42:09;;;;;;;28.08;6.00;;;12.60;83.60;;;;;;5067327;28;20124;-71
2021/12/28 09:44:36;;;;;;;26.48;4.88;;;12.70;84.10;;;;;;5049004;28;20090;-71
2021/12/28 09:47:04;;;;;;;24.88;5.28;;;12.80;84.40;;;;;;5066544;28;20040;-72
2021/12/28 09:49:31;;;;;;;28.73;6.03;;;12.90;84.50;;;;;;5049491;28;20091;-72
2021/12/28 09:52:00;;;;;;;26.52;4.95;;;13.10;84.70;;;;;;5066708;28;20064;-72
2021/12/28 09:54:28;;;;;;;25.45;6.00;;;13.20;84.60;;;;;;5066691;28;20032;-73
2021/12/28 09:56:56;;;;;;;29.15;6.53;;;13.30;84.50;;;;;;5067109;28;20027;-73
2021/12/28 09:59:23;;;;;;;26.25;5.28;;;13.40;84.50;;;;;;5048888;28;20071;-72
2021/12/28 10:01:50;;;;;;;28.63;7.50;;;13.50;84.50;;;;;;5067340;28;20438;-73
2021/12/28 10:04:16;;;;;;;30.70;7.95;;;13.70;84.70;;;;;;5066634;28;20514;-72
2021/12/28 10:06:43;;;;;;;28.95;7.00;;;13.70;84.50;;;;;;5067223;28;20025;-73
2021/12/28 10:09:18;;;;;;;25.38;5.68;;;13.90;84.60;;;;;;5066460;28;20025;-73
2021/12/28 10:11:55;;;;;;;22.63;4.65;;;14.00;84.50;;;;;;5067303;28;20395;-73
2021/12/28 10:14:27;;;;;;;20.75;5.85;;;14.10;84.40;;;;;;5048624;28;20071;-73
2021/12/28 10:16:58;;;;;;;21.55;6.00;;;14.30;84.40;;;;;;5065894;28;20036;-72
2021/12/28 10:19:45;;;;;;;26.38;6.47;;;14.40;84.20;;;;;;5066235;28;20396;-72
2021/12/28 10:22:47;;;;;;;20.85;4.72;;;14.50;84.00;;;;;;5067239;28;20028;-72
2021/12/28 10:25:26;;;;;;;17.42;5.10;;;14.50;83.70;;;;;;5064189;28;20440;-73
2021/12/28 10:27:58;;;;;;;17.55;4.47;;;14.60;83.70;;;;;;5066440;28;20498;-73
2021/12/28 10:30:26;;;;;;;22.30;4.63;;;14.70;83.70;;;;;;5066822;28;20036;-72
2021/12/28 10:32:59;;;;;;;19.25;4.80;;;14.80;83.60;;;;;;5065560;28;20028;-73
2021/12/28 10:35:31;;;;;;;17.50;5.07;;;14.80;83.40;;;;;;5045414;28;20029;-72
2021/12/28 10:38:06;;;;;;;20.77;4.68;;;14.90;83.40;;;;;;5047151;28;20041;-73
2021/12/28 10:40:44;;;;;;;18.10;5.20;;;14.90;83.30;;;;;;5045645;28;20095;-73
2021/12/28 10:43:13;;;;;;;22.08;5.13;;;15.00;83.30;;;;;;5028567;28;20029;-73
2021/12/28 10:45:41;;;;;;;19.10;4.35;;;15.00;83.10;;;;;;5028060;28;20248;-72
2021/12/28 10:48:19;;;;;;;25.50;5.82;;;15.10;83.00;;;;;;5046153;28;20250;-72
2021/12/28 10:51:00;;;;;;;19.13;5.50;;;15.10;82.80;;;;;;5045125;28;20031;-73
2021/12/28 10:53:38;;;;;;;19.27;5.57;;;15.20;82.90;;;;;;5045827;28;20028;-72
2021/12/28 10:56:06;;;;;;;17.20;5.22;;;15.30;82.80;;;;;;5045605;28;20048;-72
2021/12/28 10:58:39;;;;;;;24.30;5.07;;;15.30;83.00;;;;;;5044901;28;20040;-72
2021/12/28 11:01:22;;;;;;;25.65;5.20;;;15.20;82.10;;;;;;5045345;28;20103;-72
2021/12/28 11:03:50;;;;;;;24.02;5.88;;;15.20;82.00;;;;;;5045135;28;20033;-73
2021/12/28 11:06:29;;;;;;;17.90;4.45;;;15.10;81.90;;;;;;5045918;28;20059;-72
2021/12/28 11:09:20;;;;;;;19.27;6.15;;;15.00;81.80;;;;;;5036652;28;20067;-73
2021/12/28 11:11:47;;;;;;;19.55;5.97;;;14.90;81.70;;;;;;5046303;28;20376;-72
2021/12/28 11:14:17;;;;;;;21.30;6.47;;;14.90;81.90;;;;;;5045221;28;20369;-73
2021/12/28 11:16:52;;;;;;;16.27;4.43;;;14.80;81.80;;;;;;5044847;28;20032;-73
2021/12/28 11:19:27;;;;;;;16.63;4.20;;;14.70;81.70;;;;;;5046036;28;20383;-72
2021/12/28 11:21:56;;;;;;;17.83;5.13;;;14.60;81.60;;;;;;5046084;28;20150;-73
2021/12/28 11:24:33;;;;;;;14.18;3.28;;;14.50;81.50;;;;;;5044177;28;20472;-73
2021/12/28 11:27:00;;;;;;;18.15;4.30;;;14.50;81.70;;;;;;5045882;28;20398;-72
2021/12/28 11:29:32;;;;;;;15.80;4.85;;;14.50;82.00;;;;;;5046133;28;20043;-72
2021/12/28 11:32:01;;;;;;;14.55;4.55;;;14.60;82.20;;;;;;5045533;28;20182;-72
2021/12/28 11:34:38;;;;;;;16.20;4.18;;;14.60;82.00;;;;;;5044439;28;20187;-72
2021/12/28 11:37:05;;;;;;;20.67;4.50;;;14.60;81.90;;;;;;5046022;28;20484;-73
2021/12/28 11:39:38;;;;;;;17.02;5.43;;;14.60;82.10;;;;;;5046018;28;20044;-72
2021/12/28 11:42:06;;;;;;;21.27;3.90;;;14.60;82.10;;;;;;5044614;28;20392;-72
2021/12/28 11:44:34;;;;;;;11.98;3.08;;;14.60;82.10;;;;;;5044721;28;20064;-72
2021/12/28 11:47:02;;;;;;;13.23;3.80;;;14.60;82.10;;;;;;5045583;28;20085;-72
2021/12/28 11:49:29;;;;;;;13.13;5.18;;;14.60;82.10;;;;;;5045380;28;20334;-72
2021/12/28 11:51:58;;;;;;;16.90;5.40;;;14.70;82.10;;;;;;5014686;28;20025;-72
2021/12/28 11:54:27;;;;;;;13.35;3.50;;;14.60;82.00;;;;;;5053752;28;20399;-72
2021/12/28 11:57:00;;;;;;;11.77;4.03;;;14.70;82.30;;;;;;5070019;28;20039;-72
2021/12/28 11:59:28;;;;;;;;;;;14.70;82.30;;;;;;5036275;28;20033;-72
2021/12/28 12:02:00;;;;;;;16.63;4.68;;;14.60;82.20;;;;;;5049400;28;20334;-72
2021/12/28 12:04:32;;;;;;;18.42;3.63;;;14.60;82.20;;;;;;5049769;28;20503;-72
2021/12/28 12:07:17;;;;;;;11.52;3.88;;;14.60;82.50;;;;;;5031169;28;20029;-72
2021/12/28 12:09:49;;;;;;;14.23;4.05;;;14.60;82.90;;;;;;5049217;28;20735;-72
2021/12/28 12:12:17;;;;;;;18.10;4.40;;;14.70;83.00;;;;;;5031477;28;20048;-72
2021/12/28 12:17:45;;;;;;;13.50;3.35;;;14.80;82.80;;;;;;5048219;28;20116;-72
2021/12/28 12:20:19;;;;;;;11.27;3.30;;;14.80;82.70;;;;;;5044873;28;20041;-72
2021/12/28 12:23:06;;;;;;;11.95;2.88;;;14.80;82.80;;;;;;5060067;28;20427;-72
2021/12/28 12:25:42;;;;;;;10.90;4.25;;;14.80;82.60;;;;;;5068820;28;20037;-72
2021/12/28 12:28:10;;;;;;;13.50;3.10;;;14.70;82.30;;;;;;5068750;28;20025;-72
2021/12/28 12:30:52;;;;;;;14.13;4.03;;;14.70;82.30;;;;;;5051528;28;20063;-72
2021/12/28 12:33:18;;;;;;;10.65;3.33;;;14.60;82.10;;;;;;5065214;28;20025;-72
2021/12/28 12:35:58;;;;;;;14.00;3.60;;;14.60;82.20;;;;;;5049085;28;20032;-72
2021/12/28 12:38:24;;;;;;;13.20;4.28;;;14.40;81.90;;;;;;5055371;28;20068;-71
2021/12/28 12:40:58;;;;;;;11.93;3.33;;;14.40;82.10;;;;;;5067442;28;20040;-72
2021/12/28 12:43:35;;;;;;;9.43;3.13;;;14.40;82.20;;;;;;5045383;28;20378;-72
2021/12/28 12:46:16;;;;;;;10.85;2.47;;;14.40;82.20;;;;;;5048723;28;20044;-71
2021/12/28 12:48:42;;;;;;;6.22;2.58;;;14.30;81.90;;;;;;5049173;28;20044;-71
2021/12/28 12:51:23;;;;;;;9.05;2.53;;;14.30;81.90;;;;;;5048788;28;20408;-72